Time;durP1;ratioP1;P1;durP2;ratioP2;P2;SDS_P1;SDS_P2;PMS_P1;PMS_P2;Temp;Humidity;BMP_temperature;BMP_pressure;BME280_temperature;BME280_humidity;BME280_pressure;Samples;Min_cycle;Max_cycle;Signal;HPM_P1;HPM_P2
2022/01/22 00:02:09;;;;;;;3.17;2.97;;;1.50;99.90;;;;;;5030006;28;20192;-73
2022/01/22 00:04:35;;;;;;;3.20;3.00;;;1.60;99.90;;;;;;5029429;28;20641;-73
2022/01/22 00:07:02;;;;;;;2.27;2.17;;;1.60;99.90;;;;;;5030915;28;20607;-73
2022/01/22 00:09:35;;;;;;;3.57;2.63;;;1.60;99.90;;;;;;5032897;28;20785;-73
2022/01/22 00:12:03;;;;;;;2.77;2.37;;;1.60;99.90;;;;;;5025918;28;20595;-73
2022/01/22 00:14:29;;;;;;;3.50;3.17;;;1.60;99.90;;;;;;5030984;28;20223;-73
2022/01/22 00:16:59;;;;;;;1.70;1.60;;;1.60;99.90;;;;;;5033833;28;20627;-73
2022/01/22 00:19:27;;;;;;;2.10;2.00;;;1.60;99.90;;;;;;5027134;28;20189;-73
2022/01/22 00:21:53;;;;;;;3.10;2.90;;;1.50;99.90;;;;;;5037256;28;20212;-73
2022/01/22 00:24:20;;;;;;;3.20;3.00;;;1.60;99.90;;;;;;5032313;28;20739;-73
2022/01/22 00:26:46;;;;;;;3.53;3.30;;;1.60;99.90;;;;;;5034158;28;20184;-73
2022/01/22 00:29:13;;;;;;;2.63;2.53;;;1.60;99.90;;;;;;5033997;28;21164;-73
2022/01/22 00:31:41;;;;;;;4.73;2.73;;;1.50;99.90;;;;;;5034174;28;20200;-73
2022/01/22 00:34:07;;;;;;;2.60;2.40;;;1.50;99.90;;;;;;5030615;28;20296;-73
2022/01/22 00:36:33;;;;;;;2.70;2.60;;;1.60;99.90;;;;;;5031738;28;20172;-73
2022/01/22 00:38:59;;;;;;;2.90;2.70;;;1.60;99.90;;;;;;5033045;28;20245;-73
2022/01/22 00:41:25;;;;;;;1.90;1.80;;;1.60;99.90;;;;;;5035376;28;20636;-73
2022/01/22 00:43:50;;;;;;;2.00;1.83;;;1.60;99.90;;;;;;5032003;28;20192;-72
2022/01/22 00:46:16;;;;;;;1.57;1.50;;;1.60;99.90;;;;;;5030284;28;20172;-72
2022/01/22 00:48:42;;;;;;;3.27;3.07;;;1.60;99.90;;;;;;5042757;28;20187;-72
2022/01/22 00:51:07;;;;;;;4.13;2.03;;;1.50;99.90;;;;;;5032124;28;20188;-72
2022/01/22 00:53:33;;;;;;;2.73;2.43;;;1.60;99.90;;;;;;5030019;28;20208;-72
2022/01/22 00:55:59;;;;;;;1.57;1.47;;;1.60;99.90;;;;;;5025492;28;20177;-72
2022/01/22 00:58:24;;;;;;;2.33;2.23;;;1.50;99.90;;;;;;5033809;28;20173;-72
2022/01/22 01:00:50;;;;;;;2.20;2.10;;;1.60;99.90;;;;;;5029932;28;20192;-72
2022/01/22 01:03:16;;;;;;;2.10;2.00;;;1.60;99.90;;;;;;5028775;28;20213;-72
2022/01/22 01:05:42;;;;;;;1.97;1.87;;;1.60;99.90;;;;;;5030932;28;20582;-72
2022/01/22 01:08:08;;;;;;;2.00;1.90;;;1.60;99.90;;;;;;5030971;28;20685;-72
2022/01/22 01:10:33;;;;;;;2.07;1.97;;;1.60;99.90;;;;;;5031833;28;20173;-72
2022/01/22 01:12:59;;;;;;;2.40;2.30;;;1.60;99.90;;;;;;5046336;28;20235;-72
2022/01/22 01:15:55;;;;;;;2.27;2.10;;;1.60;99.90;;;;;;5030880;28;20196;-72
2022/01/22 01:32:14;;;;;;;2.27;2.17;;;1.70;99.90;;;;;;5027892;28;20207;-72
2022/01/22 01:34:42;;;;;;;2.67;2.33;;;1.70;99.90;;;;;;5030402;28;20197;-72
2022/01/22 01:37:11;;;;;;;2.00;1.90;;;1.70;99.90;;;;;;5027486;28;20225;-72
2022/01/22 01:39:38;;;;;;;1.60;1.60;;;1.70;99.90;;;;;;5032537;28;20548;-73
2022/01/22 01:42:11;;;;;;;1.70;1.63;;;1.70;99.90;;;;;;5027139;28;20180;-72
2022/01/22 01:44:38;;;;;;;2.20;2.10;;;1.70;99.90;;;;;;5030177;28;20331;-72
2022/01/22 01:47:06;;;;;;;2.00;1.90;;;1.70;99.90;;;;;;5030125;28;20180;-72
2022/01/22 01:49:32;;;;;;;1.57;1.50;;;1.80;99.90;;;;;;5035387;28;20172;-72
2022/01/22 01:52:01;;;;;;;1.80;1.70;;;1.80;99.90;;;;;;5028845;28;20203;-72
2022/01/22 01:55:12;;;;;;;2.13;2.03;;;1.80;99.90;;;;;;5025458;28;20320;-72
2022/01/22 01:57:38;;;;;;;2.70;2.60;;;1.80;99.90;;;;;;5026437;28;20176;-72
2022/01/22 02:00:06;;;;;;;2.33;2.23;;;1.80;99.90;;;;;;5027871;28;20216;-72
2022/01/22 02:02:34;;;;;;;2.10;2.00;;;1.80;99.90;;;;;;5030261;28;20181;-72
2022/01/22 02:04:59;;;;;;;1.90;1.80;;;1.90;99.90;;;;;;5025223;28;20620;-72
2022/01/22 02:07:25;;;;;;;2.50;2.40;;;1.90;99.90;;;;;;5033666;28;20182;-72
2022/01/22 02:09:51;;;;;;;2.50;2.40;;;1.90;99.90;;;;;;5027435;28;20176;-72
2022/01/22 02:25:55;;;;;;;2.67;2.47;;;2.00;99.90;;;;;;5028204;28;20191;-73
2022/01/22 02:28:21;;;;;;;3.07;2.87;;;2.00;99.90;;;;;;5026631;28;20201;-73
2022/01/22 02:30:50;;;;;;;2.33;2.13;;;2.00;99.90;;;;;;5029685;28;20224;-73
2022/01/22 02:33:32;;;;;;;3.20;3.00;;;2.00;99.90;;;;;;5029514;28;20255;-73
2022/01/22 02:36:05;;;;;;;2.60;2.50;;;2.00;99.90;;;;;;5031835;28;20267;-73
2022/01/22 02:38:39;;;;;;;2.57;2.47;;;2.00;99.90;;;;;;5030482;28;20177;-73
2022/01/22 02:41:05;;;;;;;2.10;2.00;;;2.00;99.90;;;;;;5030654;28;20188;-73
2022/01/22 02:43:32;;;;;;;3.20;3.00;;;2.00;99.90;;;;;;5024426;28;20292;-72
2022/01/22 02:46:00;;;;;;;2.30;2.20;;;1.90;99.90;;;;;;5029151;28;20237;-73
2022/01/22 02:48:26;;;;;;;2.90;2.70;;;1.90;99.90;;;;;;5022221;28;20542;-73
2022/01/22 02:50:51;;;;;;;2.40;2.27;;;1.90;99.90;;;;;;5043776;28;20176;-73
2022/01/22 02:53:17;;;;;;;2.70;2.60;;;1.90;99.90;;;;;;5025567;28;20215;-73
2022/01/22 02:55:45;;;;;;;3.47;3.27;;;1.90;99.90;;;;;;5039179;28;20179;-73
2022/01/22 02:58:11;;;;;;;3.10;2.90;;;2.00;99.90;;;;;;5031321;28;20187;-73
2022/01/22 03:00:36;;;;;;;2.70;2.60;;;2.00;99.90;;;;;;5030122;28;20188;-73
2022/01/22 03:03:03;;;;;;;3.20;3.10;;;2.00;99.90;;;;;;5028466;28;20266;-73
2022/01/22 03:05:28;;;;;;;2.70;2.60;;;2.00;99.90;;;;;;5027510;28;20209;-72
2022/01/22 03:07:57;;;;;;;2.70;2.60;;;2.00;99.90;;;;;;5032481;28;20214;-72
2022/01/22 03:10:25;;;;;;;3.10;2.90;;;2.00;99.90;;;;;;5033473;28;20263;-72
2022/01/22 03:18:17;;;;;;;3.47;3.17;;;2.10;99.90;;;;;;5036354;28;20585;-72
2022/01/22 03:28:58;;;;;;;3.00;2.90;;;2.00;99.90;;;;;;5038415;28;20192;-72
2022/01/22 03:31:24;;;;;;;3.93;3.63;;;2.00;99.90;;;;;;5034010;28;20691;-72
2022/01/22 03:33:50;;;;;;;2.90;2.70;;;1.90;99.90;;;;;;5032011;28;20203;-72
2022/01/22 03:36:16;;;;;;;2.83;2.63;;;1.90;99.90;;;;;;5034332;28;20168;-72
2022/01/22 03:38:42;;;;;;;2.80;2.67;;;1.90;99.90;;;;;;5025694;28;20230;-72
2022/01/22 03:41:08;;;;;;;3.03;2.83;;;1.90;99.90;;;;;;5031076;28;20176;-72
2022/01/22 03:43:34;;;;;;;3.50;3.30;;;1.90;99.90;;;;;;5030900;28;20553;-72
2022/01/22 03:45:59;;;;;;;4.00;3.70;;;1.90;99.90;;;;;;5027617;28;20183;-72
2022/01/22 03:48:25;;;;;;;3.70;3.47;;;1.90;99.90;;;;;;5032505;28;20554;-72
2022/01/22 03:50:51;;;;;;;3.90;3.60;;;1.90;99.90;;;;;;5035813;28;20196;-72
2022/01/22 03:53:17;;;;;;;4.03;3.73;;;1.90;99.90;;;;;;5034490;28;20211;-72
2022/01/22 03:55:59;;;;;;;4.20;3.90;;;1.80;99.90;;;;;;5029560;28;20212;-72
2022/01/22 03:58:25;;;;;;;4.43;4.03;;;1.80;99.90;;;;;;5034855;28;20177;-72
2022/01/22 04:01:00;;;;;;;4.43;4.13;;;1.80;99.90;;;;;;5029097;28;20219;-72
2022/01/22 04:03:31;;;;;;;4.83;4.33;;;1.80;99.90;;;;;;5022814;28;20263;-72
2022/01/22 04:08:41;;;;;;;4.47;4.17;;;1.80;99.90;;;;;;5031493;28;20675;-72
2022/01/22 04:11:12;;;;;;;4.03;3.73;;;1.80;99.90;;;;;;5031174;28;20185;-72
2022/01/22 04:13:37;;;;;;;4.53;4.23;;;1.80;99.90;;;;;;5025352;28;20370;-72
2022/01/22 04:16:03;;;;;;;4.50;4.20;;;1.80;99.90;;;;;;5034187;28;20260;-72
2022/01/22 04:27:00;;;;;;;4.37;4.07;;;1.90;99.90;;;;;;5025983;28;20208;-72
2022/01/22 04:29:27;;;;;;;4.00;3.70;;;1.90;99.90;;;;;;5031785;28;20215;-72
2022/01/22 04:31:53;;;;;;;3.70;3.40;;;2.00;99.90;;;;;;5036336;28;20580;-72
2022/01/22 04:34:19;;;;;;;5.10;4.70;;;2.00;99.90;;;;;;5032312;28;20200;-72
2022/01/22 04:36:45;;;;;;;4.30;4.00;;;2.00;99.90;;;;;;5028083;28;20211;-72
2022/01/22 04:39:12;;;;;;;4.80;4.40;;;2.00;99.90;;;;;;5033213;28;20611;-72
2022/01/22 04:41:37;;;;;;;4.60;4.30;;;2.00;99.90;;;;;;5028159;28;20189;-72
2022/01/22 04:44:05;;;;;;;5.23;4.73;;;2.10;99.90;;;;;;5031284;28;20626;-72
2022/01/22 04:57:20;;;;;;;5.47;3.93;;;2.10;99.90;;;;;;5021289;28;20200;-72
2022/01/22 04:59:46;;;;;;;4.47;4.10;;;2.10;99.90;;;;;;5025552;28;20180;-72
2022/01/22 05:02:12;;;;;;;5.27;4.87;;;2.00;99.90;;;;;;5027468;28;20197;-72
2022/01/22 05:04:37;;;;;;;4.57;4.27;;;2.10;99.90;;;;;;5028892;28;20600;-73
2022/01/22 05:07:03;;;;;;;3.20;3.00;;;2.10;99.90;;;;;;5031322;28;20195;-72
2022/01/22 05:09:30;;;;;;;3.50;3.17;;;2.10;99.90;;;;;;5026327;28;20200;-73
2022/01/22 05:11:56;;;;;;;4.50;4.10;;;2.20;99.90;;;;;;5021026;28;20212;-72
2022/01/22 05:14:23;;;;;;;4.30;4.00;;;2.20;99.90;;;;;;5030890;28;20212;-72
2022/01/22 05:16:50;;;;;;;5.20;4.80;;;2.10;99.90;;;;;;5033222;28;20180;-73
2022/01/22 05:19:48;;;;;;;4.83;4.33;;;2.20;99.90;;;;;;5024641;28;20180;-73
2022/01/22 05:22:16;;;;;;;4.90;4.50;;;2.10;99.90;;;;;;5028789;28;20617;-72
2022/01/22 05:24:47;;;;;;;5.50;5.10;;;2.10;99.90;;;;;;5022691;28;20209;-73
2022/01/22 05:37:35;;;;;;;5.27;4.87;;;2.10;99.90;;;;;;5025504;28;20234;-73
2022/01/22 05:40:01;;;;;;;5.20;4.27;;;2.10;99.90;;;;;;5031691;28;20656;-73
2022/01/22 05:42:27;;;;;;;4.50;4.17;;;2.10;99.90;;;;;;5021884;28;20708;-72
2022/01/22 05:44:53;;;;;;;5.47;4.97;;;2.10;99.90;;;;;;5023148;28;20276;-72
2022/01/22 05:47:23;;;;;;;4.93;4.53;;;2.10;99.90;;;;;;5026723;28;20200;-72
2022/01/22 05:49:49;;;;;;;4.93;4.33;;;2.20;99.90;;;;;;5032113;28;20205;-72
2022/01/22 05:52:20;;;;;;;5.73;5.33;;;2.20;99.90;;;;;;5022402;28;20696;-72
2022/01/22 06:00:05;;;;;;;4.97;4.57;;;2.30;99.90;;;;;;5018261;28;20191;-73
2022/01/22 06:02:30;;;;;;;5.17;4.13;;;2.40;99.90;;;;;;5020551;28;20223;-72
2022/01/22 06:04:56;;;;;;;4.27;3.87;;;2.40;99.90;;;;;;5026437;28;20208;-72
2022/01/22 06:07:21;;;;;;;5.83;4.47;;;2.40;99.90;;;;;;5026261;28;20191;-73
2022/01/22 06:10:34;;;;;;;5.40;4.90;;;2.40;99.90;;;;;;5030355;28;20264;-73
2022/01/22 06:15:01;;;;;;;4.00;3.70;;;2.40;99.90;;;;;;5021393;28;20239;-73
2022/01/22 06:17:27;;;;;;;5.47;4.80;;;2.50;99.90;;;;;;5017313;28;20180;-72
2022/01/22 06:19:53;;;;;;;4.27;3.97;;;2.50;99.90;;;;;;5022597;28;20191;-73
2022/01/22 06:22:18;;;;;;;4.70;4.30;;;2.40;99.90;;;;;;5019782;28;20181;-73
2022/01/22 06:24:44;;;;;;;4.13;3.90;;;2.50;99.90;;;;;;5022876;28;20220;-73
2022/01/22 06:27:09;;;;;;;4.67;4.30;;;2.50;99.90;;;;;;5027229;28;20196;-73
2022/01/22 06:29:35;;;;;;;4.13;3.83;;;2.50;99.90;;;;;;5028645;28;20192;-73
2022/01/22 06:32:01;;;;;;;4.47;4.13;;;2.50;99.90;;;;;;5018884;28;20216;-73
2022/01/22 06:34:26;;;;;;;5.30;4.80;;;2.50;99.90;;;;;;5018778;28;20207;-74
2022/01/22 06:36:52;;;;;;;4.77;4.37;;;2.50;99.90;;;;;;5028611;28;20279;-72
2022/01/22 06:39:20;;;;;;;3.10;2.90;;;2.40;99.90;;;;;;5029614;28;20599;-73
2022/01/22 06:41:46;;;;;;;4.87;4.47;;;2.40;99.90;;;;;;5022221;28;20177;-73
2022/01/22 06:44:17;;;;;;;3.87;3.57;;;2.50;99.90;;;;;;5025659;28;20271;-72
2022/01/22 06:46:46;;;;;;;4.93;3.93;;;2.60;99.90;;;;;;5036921;28;20219;-72
2022/01/22 06:49:12;;;;;;;5.50;4.30;;;2.50;99.90;;;;;;5031352;28;20224;-73
2022/01/22 06:51:38;;;;;;;4.80;4.50;;;2.60;99.90;;;;;;5027914;28;20190;-73
2022/01/22 06:54:06;;;;;;;3.73;3.40;;;2.60;99.90;;;;;;5032796;28;20251;-73
2022/01/22 06:56:32;;;;;;;3.20;3.00;;;2.60;99.90;;;;;;5030489;28;20516;-73
2022/01/22 06:58:58;;;;;;;4.63;4.10;;;2.60;99.90;;;;;;5027888;28;20664;-72
2022/01/22 07:01:26;;;;;;;4.53;4.20;;;2.60;99.90;;;;;;5025683;28;20192;-73
2022/01/22 07:03:51;;;;;;;4.73;4.33;;;2.60;99.90;;;;;;5018182;28;20200;-73
2022/01/22 07:06:17;;;;;;;4.87;4.47;;;2.70;99.90;;;;;;5026336;28;20196;-73
2022/01/22 07:08:43;;;;;;;4.13;3.87;;;2.70;99.90;;;;;;5026906;28;20185;-73
2022/01/22 07:11:09;;;;;;;4.10;3.80;;;2.70;99.90;;;;;;5027336;28;20220;-72
2022/01/22 07:13:34;;;;;;;5.20;4.80;;;2.70;99.90;;;;;;5020392;28;20213;-73
2022/01/22 07:16:00;;;;;;;4.93;4.53;;;2.70;99.90;;;;;;5023991;28;20185;-73
2022/01/22 07:18:28;;;;;;;3.40;3.10;;;2.80;99.90;;;;;;5032360;28;20534;-73
2022/01/22 07:20:54;;;;;;;4.57;4.23;;;2.80;99.90;;;;;;5023057;28;20240;-73
2022/01/22 07:25:45;;;;;;;4.13;3.83;;;2.80;99.90;;;;;;5032190;28;20561;-73
2022/01/22 07:28:12;;;;;;;4.23;3.90;;;2.90;99.90;;;;;;5036946;28;20185;-72
2022/01/22 07:30:39;;;;;;;5.40;4.30;;;2.90;99.90;;;;;;5032536;28;20620;-74
2022/01/22 07:33:05;;;;;;;7.03;4.93;;;2.90;99.90;;;;;;5029378;28;20205;-73
2022/01/22 07:35:34;;;;;;;4.80;4.40;;;2.90;99.90;;;;;;5027981;28;20204;-71
2022/01/22 07:38:01;;;;;;;3.60;3.40;;;2.90;99.90;;;;;;5028251;28;20577;-71
2022/01/22 07:40:26;;;;;;;4.13;3.83;;;3.00;99.90;;;;;;5032805;28;20177;-73
2022/01/22 07:42:53;;;;;;;4.20;3.90;;;3.00;99.90;;;;;;5031523;28;20195;-71
2022/01/22 07:45:18;;;;;;;3.87;3.57;;;3.00;99.90;;;;;;5026416;28;20304;-71
2022/01/22 07:47:44;;;;;;;4.70;4.27;;;3.10;99.90;;;;;;5030939;28;20719;-71
2022/01/22 07:50:10;;;;;;;4.87;3.60;;;3.10;99.90;;;;;;5026592;28;20276;-71
2022/01/22 07:52:35;;;;;;;4.80;4.40;;;3.20;99.90;;;;;;5030339;28;20215;-71
2022/01/22 07:55:02;;;;;;;4.10;3.80;;;3.20;99.90;;;;;;5018632;28;20299;-74
2022/01/22 07:57:28;;;;;;;3.77;3.47;;;3.30;99.90;;;;;;5026183;28;20181;-74
2022/01/22 07:59:53;;;;;;;4.53;4.23;;;3.30;99.90;;;;;;5022310;28;20189;-73
2022/01/22 08:02:19;;;;;;;5.07;4.57;;;3.40;99.90;;;;;;5025380;28;20189;-73
2022/01/22 08:04:45;;;;;;;4.80;4.50;;;3.30;99.90;;;;;;5020719;28;20197;-73
2022/01/22 08:07:11;;;;;;;4.67;4.30;;;3.30;99.90;;;;;;5034356;28;20543;-73
2022/01/22 08:09:37;;;;;;;4.20;3.90;;;3.30;99.90;;;;;;5023218;28;20182;-73
2022/01/22 08:12:03;;;;;;;3.53;3.33;;;3.30;99.90;;;;;;5027789;28;20204;-73
2022/01/22 08:14:28;;;;;;;4.27;3.97;;;3.30;99.90;;;;;;5020375;28;20283;-73
2022/01/22 08:16:54;;;;;;;3.97;3.67;;;3.40;99.90;;;;;;5029713;28;20265;-72
2022/01/22 08:19:20;;;;;;;4.33;4.03;;;3.40;99.90;;;;;;5022804;28;20199;-73
2022/01/22 08:21:46;;;;;;;3.87;3.67;;;3.40;99.90;;;;;;5024692;28;20536;-72
2022/01/22 08:24:14;;;;;;;4.57;4.27;;;3.40;99.90;;;;;;5032517;28;20205;-73
2022/01/22 08:26:46;;;;;;;3.43;3.23;;;3.40;99.90;;;;;;5020173;28;20177;-72
2022/01/22 08:29:12;;;;;;;4.53;4.23;;;3.40;99.90;;;;;;5021665;28;20173;-73
2022/01/22 08:37:00;;;;;;;4.50;4.17;;;3.50;99.90;;;;;;5030458;28;20620;-73
2022/01/22 08:39:26;;;;;;;4.40;4.10;;;3.50;99.90;;;;;;5031767;28;20209;-73
2022/01/22 08:41:52;;;;;;;3.20;3.00;;;3.50;99.90;;;;;;5030311;28;20176;-73
2022/01/22 08:44:17;;;;;;;4.83;3.10;;;3.50;99.90;;;;;;5032469;28;20738;-73
2022/01/22 08:46:43;;;;;;;5.10;4.07;;;3.60;99.90;;;;;;5033751;28;20264;-73
2022/01/22 08:49:09;;;;;;;3.57;3.37;;;3.50;99.90;;;;;;5021346;28;20240;-72
2022/01/22 08:51:38;;;;;;;4.50;4.20;;;3.50;99.90;;;;;;5019071;28;20695;-73
2022/01/22 08:54:05;;;;;;;3.43;3.13;;;3.50;99.90;;;;;;5019310;28;20556;-73
2022/01/22 08:56:31;;;;;;;4.13;3.40;;;3.60;99.90;;;;;;5031609;28;20188;-72
2022/01/22 08:58:57;;;;;;;3.40;3.20;;;3.60;99.90;;;;;;5030170;28;20243;-73
2022/01/22 09:01:23;;;;;;;3.00;2.80;;;3.70;99.90;;;;;;5027629;28;20206;-73
2022/01/22 09:03:49;;;;;;;3.47;3.17;;;3.80;99.90;;;;;;5025377;28;20604;-74
2022/01/22 09:06:17;;;;;;;3.90;3.60;;;3.80;99.90;;;;;;5033482;28;20180;-74
2022/01/22 09:08:44;;;;;;;3.03;2.83;;;3.80;99.90;;;;;;5025749;28;20184;-74
2022/01/22 09:11:10;;;;;;;3.63;3.43;;;4.00;99.90;;;;;;5032574;28;20211;-73
2022/01/22 09:13:35;;;;;;;3.67;3.37;;;4.00;99.90;;;;;;5033566;28;20671;-73
2022/01/22 09:16:02;;;;;;;4.03;3.73;;;4.10;99.90;;;;;;5032642;28;20183;-73
2022/01/22 09:18:28;;;;;;;2.87;2.77;;;4.10;99.90;;;;;;5025822;28;20184;-73
2022/01/22 09:23:19;;;;;;;3.63;3.43;;;4.20;99.90;;;;;;5044156;28;20184;-73
2022/01/22 09:25:45;;;;;;;2.93;2.73;;;4.10;99.90;;;;;;5026560;28;20231;-73
2022/01/22 09:28:12;;;;;;;3.53;3.33;;;4.20;99.90;;;;;;5030049;28;20652;-73
2022/01/22 09:30:42;;;;;;;3.20;2.77;;;4.20;99.90;;;;;;5027872;28;20540;-73
2022/01/22 09:33:08;;;;;;;3.63;3.43;;;4.30;99.90;;;;;;5029512;28;20201;-73
2022/01/22 09:35:34;;;;;;;3.07;2.87;;;4.40;99.90;;;;;;5029751;28;20195;-72
2022/01/22 09:38:00;;;;;;;3.40;3.17;;;4.50;99.90;;;;;;5028544;28;20668;-72
2022/01/22 09:40:27;;;;;;;3.20;3.00;;;4.50;99.90;;;;;;5030225;28;20199;-72
2022/01/22 09:42:52;;;;;;;3.23;3.07;;;4.50;99.90;;;;;;5027087;28;20181;-72
2022/01/22 09:45:20;;;;;;;2.37;2.23;;;4.40;99.90;;;;;;5032865;28;20627;-72
2022/01/22 09:47:48;;;;;;;2.90;2.70;;;4.30;99.90;;;;;;5019165;28;20189;-73
2022/01/22 09:50:15;;;;;;;2.60;2.50;;;4.30;99.90;;;;;;5029937;28;20187;-73
2022/01/22 09:52:41;;;;;;;3.33;3.13;;;4.30;99.90;;;;;;5027560;28;20271;-73
2022/01/22 09:55:08;;;;;;;2.67;2.57;;;4.40;99.90;;;;;;5029347;28;20918;-73
2022/01/22 09:57:36;;;;;;;2.40;2.30;;;4.40;99.90;;;;;;5023958;28;20206;-74
2022/01/22 10:00:03;;;;;;;3.50;3.20;;;4.50;99.90;;;;;;5021452;28;20193;-73
2022/01/22 10:02:29;;;;;;;3.93;3.63;;;4.50;99.90;;;;;;5029983;28;20268;-73
2022/01/22 10:04:55;;;;;;;3.33;3.13;;;4.60;99.90;;;;;;5031515;28;20630;-74
2022/01/22 10:07:23;;;;;;;2.80;2.70;;;4.70;99.90;;;;;;5029518;28;20204;-74
2022/01/22 10:10:15;;;;;;;3.60;3.30;;;4.60;99.90;;;;;;5018759;28;20239;-73
2022/01/22 10:12:50;;;;;;;2.83;2.70;;;4.70;99.90;;;;;;5019912;28;20270;-73
2022/01/22 10:15:17;;;;;;;2.77;2.67;;;4.50;99.90;;;;;;5026189;28;20287;-74
2022/01/22 10:17:45;;;;;;;3.17;2.97;;;4.60;99.90;;;;;;5028516;28;20572;-73
2022/01/22 10:20:30;;;;;;;3.07;2.90;;;4.50;99.90;;;;;;5022402;28;20188;-74
2022/01/22 10:22:59;;;;;;;3.87;3.17;;;4.40;99.90;;;;;;5021736;28;20208;-73
2022/01/22 10:25:47;;;;;;;2.80;2.67;;;4.40;99.90;;;;;;5022094;28;20696;-74
2022/01/22 10:28:27;;;;;;;3.07;2.87;;;4.40;99.90;;;;;;5030323;28;20563;-74
2022/01/22 10:31:03;;;;;;;3.07;2.87;;;4.40;99.90;;;;;;5030250;28;20179;-73
2022/01/22 10:33:34;;;;;;;3.60;3.40;;;4.50;99.90;;;;;;5016793;28;20698;-73
2022/01/22 10:36:16;;;;;;;3.77;3.47;;;4.40;99.90;;;;;;5032952;28;20179;-71
2022/01/22 10:38:44;;;;;;;3.33;3.10;;;4.30;99.90;;;;;;5025716;28;20693;-71
2022/01/22 10:41:12;;;;;;;3.40;3.10;;;4.40;99.90;;;;;;5026954;28;20177;-72
2022/01/22 10:43:43;;;;;;;2.87;2.73;;;4.50;99.90;;;;;;5031038;28;20652;-72
2022/01/22 10:46:19;;;;;;;3.10;2.90;;;4.50;99.90;;;;;;5030189;28;20275;-72
2022/01/22 10:48:56;;;;;;;3.47;3.27;;;4.50;99.90;;;;;;5027747;28;20230;-72
2022/01/22 10:51:22;;;;;;;3.70;3.50;;;4.30;99.90;;;;;;5035078;28;20267;-72
2022/01/22 10:54:01;;;;;;;2.93;2.73;;;4.30;99.90;;;;;;5020597;28;20219;-73
2022/01/22 10:56:29;;;;;;;2.60;2.40;;;4.40;99.90;;;;;;5025618;28;20164;-72
2022/01/22 10:58:58;;;;;;;3.37;3.07;;;4.60;99.90;;;;;;5029561;28;20684;-71
2022/01/22 11:01:47;;;;;;;3.20;3.00;;;4.40;99.90;;;;;;5024194;28;20271;-71
2022/01/22 11:04:15;;;;;;;2.53;2.37;;;4.40;99.90;;;;;;5015484;28;20597;-71
2022/01/22 11:06:46;;;;;;;3.57;3.33;;;4.40;99.90;;;;;;5017036;28;20547;-72
2022/01/22 11:09:12;;;;;;;3.27;2.97;;;4.20;99.90;;;;;;5031763;28;20273;-73
2022/01/22 11:11:40;;;;;;;3.20;3.00;;;4.20;99.90;;;;;;5019991;28;20680;-72
2022/01/22 11:14:09;;;;;;;3.13;2.83;;;4.20;99.90;;;;;;5023498;28;20322;-72
2022/01/22 11:16:40;;;;;;;2.33;2.13;;;4.20;99.90;;;;;;5029073;28;20173;-72
2022/01/22 11:19:08;;;;;;;3.00;2.80;;;4.30;99.90;;;;;;5027440;28;20169;-72
2022/01/22 11:21:36;;;;;;;3.30;3.10;;;4.30;99.90;;;;;;5022480;28;20189;-72
2022/01/22 11:24:04;;;;;;;2.80;2.70;;;4.30;99.90;;;;;;5023352;28;20703;-73
2022/01/22 11:26:30;;;;;;;3.07;2.97;;;4.30;99.90;;;;;;5037790;28;20207;-72
2022/01/22 11:28:58;;;;;;;3.47;3.20;;;4.40;99.90;;;;;;5026938;28;20278;-72
2022/01/22 11:31:25;;;;;;;3.67;3.37;;;4.40;99.90;;;;;;5036207;28;20175;-72
2022/01/22 11:33:53;;;;;;;2.67;2.47;;;4.40;99.90;;;;;;5025931;28;20255;-72
2022/01/22 11:36:27;;;;;;;3.60;3.30;;;4.40;99.90;;;;;;5033052;28;20183;-71
2022/01/22 11:38:56;;;;;;;4.77;4.27;;;4.40;99.90;;;;;;5037864;28;20675;-73
2022/01/22 11:41:23;;;;;;;3.70;3.40;;;4.50;99.90;;;;;;5026071;28;20711;-72
2022/01/22 11:43:53;;;;;;;3.27;3.07;;;4.50;99.90;;;;;;5026167;28;20200;-72
2022/01/22 11:46:25;;;;;;;3.83;3.53;;;4.50;99.90;;;;;;5030168;28;20196;-72
2022/01/22 11:49:08;;;;;;;3.20;3.00;;;4.40;99.90;;;;;;5038299;28;20267;-72
2022/01/22 11:51:33;;;;;;;5.07;3.50;;;4.40;99.90;;;;;;5038681;28;20673;-72
2022/01/22 11:54:00;;;;;;;3.90;3.60;;;4.40;99.90;;;;;;5038840;28;20212;-72
2022/01/22 11:56:30;;;;;;;3.90;3.60;;;4.50;99.90;;;;;;5027164;28;20184;-72
2022/01/22 11:58:56;;;;;;;3.10;2.90;;;4.60;99.90;;;;;;5031576;28;20265;-72
2022/01/22 12:01:50;;;;;;;4.93;4.20;;;4.60;99.90;;;;;;5028740;28;20275;-72
2022/01/22 12:04:18;;;;;;;3.33;3.13;;;4.50;99.90;;;;;;5037527;28;20192;-72
2022/01/22 12:07:02;;;;;;;3.60;3.30;;;4.60;99.90;;;;;;5028348;28;20193;-72
2022/01/22 12:09:30;;;;;;;2.90;2.70;;;4.60;99.90;;;;;;5023820;28;20200;-72
2022/01/22 12:14:48;;;;;;;4.10;3.80;;;4.40;99.90;;;;;;5022485;28;20284;-72
2022/01/22 12:17:24;;;;;;;3.25;3.00;;;4.40;99.90;;;;;;5023543;28;20594;-72
2022/01/22 12:22:37;;;;;;;3.90;3.60;;;4.60;99.90;;;;;;5018375;28;20188;-72
2022/01/22 12:25:08;;;;;;;3.28;3.08;;;4.50;99.90;;;;;;5019278;28;20201;-71
2022/01/22 12:27:50;;;;;;;4.03;3.73;;;4.60;99.90;;;;;;5025202;28;20335;-73
2022/01/22 12:30:31;;;;;;;2.80;2.60;;;4.50;99.90;;;;;;5022027;28;20183;-72
2022/01/22 12:32:59;;;;;;;4.18;3.45;;;4.50;99.90;;;;;;5021545;28;20444;-72
2022/01/22 12:35:37;;;;;;;3.67;3.47;;;4.40;99.90;;;;;;5020627;28;20196;-69
2022/01/22 12:38:29;;;;;;;2.97;2.77;;;4.40;99.90;;;;;;5018948;28;20205;-69
2022/01/22 12:41:13;;;;;;;3.77;3.47;;;4.50;99.90;;;;;;5022839;28;20188;-69
2022/01/22 12:43:40;;;;;;;4.33;4.03;;;4.50;99.90;;;;;;5024446;28;20197;-69
2022/01/22 12:46:05;;;;;;;3.80;3.50;;;4.40;99.90;;;;;;5020447;28;20172;-68
2022/01/22 12:48:34;;;;;;;4.33;4.03;;;4.50;99.90;;;;;;5018815;28;20217;-69
2022/01/22 12:51:04;;;;;;;3.40;3.20;;;4.60;99.90;;;;;;5026358;28;20246;-69
2022/01/22 12:53:31;;;;;;;3.83;3.53;;;4.50;99.90;;;;;;5025324;28;20207;-70
2022/01/22 12:58:26;;;;;;;4.20;3.90;;;4.30;99.90;;;;;;5020646;28;20176;-69
2022/01/22 13:01:21;;;;;;;3.63;3.43;;;4.20;99.90;;;;;;5016541;28;20243;-69
2022/01/22 13:03:49;;;;;;;4.50;4.10;;;4.20;99.90;;;;;;5024199;28;20338;-69
2022/01/22 13:06:15;;;;;;;3.63;3.33;;;4.30;99.90;;;;;;5022498;28;20234;-69
2022/01/22 13:08:41;;;;;;;4.20;3.90;;;4.40;99.90;;;;;;5030351;28;20189;-69
2022/01/22 13:11:08;;;;;;;4.90;4.50;;;4.30;99.90;;;;;;5019748;28;20192;-69
2022/01/22 13:13:37;;;;;;;3.63;3.40;;;4.40;99.90;;;;;;5025626;28;20212;-68
2022/01/22 13:16:16;;;;;;;4.00;3.70;;;4.30;99.90;;;;;;5018075;28;20262;-69
2022/01/22 13:18:46;;;;;;;2.70;2.50;;;4.40;99.90;;;;;;5020917;28;20184;-69
2022/01/22 13:21:13;;;;;;;3.10;2.50;;;4.50;99.90;;;;;;5025779;28;20178;-68
2022/01/22 13:23:39;;;;;;;4.13;3.73;;;4.50;99.90;;;;;;5024991;28;20215;-69
2022/01/22 13:26:08;;;;;;;3.40;3.20;;;4.60;99.90;;;;;;5026379;28;20268;-71
2022/01/22 13:28:36;;;;;;;4.07;3.77;;;4.70;99.90;;;;;;5027985;28;20545;-70
2022/01/22 13:31:10;;;;;;;3.60;3.30;;;4.60;99.90;;;;;;5033780;28;20266;-71
2022/01/22 13:33:44;;;;;;;4.10;3.87;;;4.50;99.90;;;;;;5022718;28;20245;-70
2022/01/22 13:36:47;;;;;;;4.50;3.70;;;4.60;99.90;;;;;;5024311;28;20254;-70
2022/01/22 13:49:52;;;;;;;3.73;3.43;;;4.40;99.90;;;;;;5033645;28;20669;-70
2022/01/22 13:52:20;;;;;;;4.17;3.87;;;4.40;99.90;;;;;;5028946;28;20629;-70
2022/01/22 13:54:48;;;;;;;3.22;3.03;;;4.50;99.90;;;;;;5027869;28;20209;-70
2022/01/22 13:57:17;;;;;;;4.00;3.70;;;4.50;99.90;;;;;;5027781;28;20177;-70
2022/01/22 13:59:45;;;;;;;4.07;3.70;;;4.40;99.90;;;;;;5029179;28;20173;-70
2022/01/22 14:05:04;;;;;;;3.40;3.20;;;4.10;99.90;;;;;;5027546;28;20667;-70
2022/01/22 14:07:43;;;;;;;3.13;2.93;;;4.20;99.90;;;;;;5025010;28;20730;-69
2022/01/22 14:10:20;;;;;;;3.80;3.50;;;4.30;99.90;;;;;;5025663;28;20231;-71
2022/01/22 14:12:51;;;;;;;4.20;3.90;;;4.20;99.90;;;;;;5029018;28;20188;-69
2022/01/22 14:15:26;;;;;;;4.00;3.70;;;4.20;99.90;;;;;;5021488;28;20196;-70
2022/01/22 14:18:20;;;;;;;4.20;3.83;;;4.20;99.90;;;;;;5020681;28;20176;-70
2022/01/22 14:20:55;;;;;;;3.33;3.13;;;4.20;99.90;;;;;;5021581;28;20189;-71
2022/01/22 14:23:23;;;;;;;4.03;3.77;;;4.30;99.90;;;;;;5029698;28;20590;-69
2022/01/22 14:26:13;;;;;;;3.07;2.83;;;4.30;99.90;;;;;;5017232;28;20239;-70
2022/01/22 14:28:49;;;;;;;3.60;3.30;;;4.30;99.90;;;;;;5020002;28;20931;-70
2022/01/22 14:31:41;;;;;;;3.17;2.97;;;4.30;99.90;;;;;;5026462;28;20262;-70
2022/01/22 14:34:11;;;;;;;3.93;3.47;;;4.30;99.90;;;;;;5037003;28;20573;-69
2022/01/22 14:36:41;;;;;;;4.03;3.73;;;4.20;99.90;;;;;;5017548;28;20183;-69
2022/01/22 14:45:08;;;;;;;2.97;2.80;;;3.90;99.90;;;;;;5017303;28;20203;-69
2022/01/22 14:47:35;;;;;;;3.13;2.83;;;3.90;99.90;;;;;;5023265;28;20181;-70
2022/01/22 14:50:03;;;;;;;3.30;3.00;;;4.00;99.90;;;;;;5024687;28;20169;-69
2022/01/22 14:52:29;;;;;;;4.03;3.67;;;4.10;99.90;;;;;;5036612;28;20287;-69
2022/01/22 14:54:57;;;;;;;3.80;3.50;;;4.10;99.90;;;;;;5042047;28;20724;-69
2022/01/22 14:57:25;;;;;;;3.00;2.80;;;4.10;99.90;;;;;;5023739;28;20181;-69
2022/01/22 14:59:51;;;;;;;2.70;2.50;;;4.00;99.90;;;;;;5025420;28;20247;-70
2022/01/22 15:02:17;;;;;;;2.97;2.77;;;4.00;99.90;;;;;;5035238;28;20207;-69
2022/01/22 15:04:43;;;;;;;3.10;2.90;;;4.00;99.90;;;;;;5025351;28;20211;-68
2022/01/22 15:07:13;;;;;;;3.13;2.93;;;3.90;99.90;;;;;;5030216;28;20757;-70